Palm Beach, FL

2:57 AM EDT on October 23, 2014 (GMT -0400)
Witham | Change Station
CLOSE
Current Station
Airport
Location: Stuart,
Elevation: 20 ft
Nearby Weather Stations

Elev 20 ft 27.18 °N, 80.22 °W | Updated 22 minutes ago

Mostly Cloudy
Mostly Cloudy
75 °F
Feels Like 75 °F
N
7
Wind Variable Wind from NNE

Today
High -- | Low -- °F
--% Chance of Precip.
Yesterday
High -- | Low -- °F
Precip. -- in
7:24 AM 6:44 PM
Waning Crescent, 0% visible
Pressure 29.93 in
Visibility 10.0 miles
Clouds Clear
Dew Point 63 °F
Humidity 65%
Rainfall 0.00 in
Snow Depth Not available.
UV 0 out of 12
Pollen 3.40 out of 12
Air Quality Not available.
Flu Activity Local Activity
METAR KSUA 230635Z AUTO 03006KT 10SM CLR 24/17 A2993 RMK AO2

More Conditions Fewer Conditions

Pressure 29.93 in
Visibility 10.0 miles
Clouds Clear
Dew Point 63 °F
Humidity 65%
Rainfall 0.00 in
Snow Depth Not available.
UV 0 out of 12
Pollen 3.40 out of 12
Air Quality Not available.
Flu Activity Local Activity
METAR KSUA 230635Z AUTO 03006KT 10SM CLR 24/17 A2993 RMK AO2

More Conditions Fewer Conditions

Nowcast | as of 2:36 am EDT on October 23, 2014

Scattered showers and isolated thunderstorms will continue to impact the area through the morning hours. These showers and storms will have little to no movement this morning. While most of the rainfall will be light to moderate, there is a potential for locally heavy rainfall, especially in the coastal and Metro areas of Miami-Dade, Broward, and West Palm Beach counties.

×

10-Day Weather Forecast

Almanac

Astronomy

Oct. 23, 2014 Rise Set
Actual Time 7:24 AM EDT 6:44 PM EDT
Civil Twilight 7:00 AM EDT 7:08 PM EDT
Nautical Twilight 6:33 AM EDT 7:35 PM EDT
Astronomical Twilight 6:06 AM EDT 8:02 PM EDT
Moon 7:04 AM EDT 6:45 PM EDT
Length of Visible Light 12h 07m
Length of Day
11h 20m
Tomorrow will be 1m 27s shorter.
Waning Crescent, 0% of the Moon is Illuminated
Today
Waning Crescent
Oct 23
New
Oct 30
First Quarter
Nov 6
Full
Nov 14
Last Quarter

Today's Extremes

State Highs State Lows

Community

WunderPhotos

Upload Photos

1,764,194 photos uploaded!

Nearby

Air Quality

  Air Quality AQ Index Pollutant
Yesterday Good
OZONE
Yesterday Good
PM2.5
Thursday Good
OZONE
Thursday Good
PM2.5
Friday Good
OZONE
Friday Good
PM2.5

Snow Depth

Station Depth Elevation
No new snow has been reported.

Earthquake Activity

City Distance Mag. Time & Date
No recent earthquake activity has been reported nearby.
Minimum magnitude displayed is 2.5.

Coastal Water Temperatures

Place Temperature
Lake Worth, FL 82.9 °F
Virginia Key, FL 81.0 °F

Nearby Weather Stations